Time;durP1;ratioP1;P1;durP2;ratioP2;P2;SDS_P1;SDS_P2;PMS_P1;PMS_P2;Temp;Humidity;BMP_temperature;BMP_pressure;BME280_temperature;BME280_humidity;BME280_pressure;Samples;Min_cycle;Max_cycle;Signal;HPM_P1;HPM_P2
2022/04/24 00:00:56;;;;;;;4.77;4.27;;;18.80;66.70;;;;;;5069148;28;20810;-71
2022/04/24 00:03:22;;;;;;;5.37;4.07;;;18.80;66.60;;;;;;5072969;28;20946;-71
2022/04/24 00:05:50;;;;;;;4.97;4.47;;;18.70;66.70;;;;;;5073215;28;20404;-71
2022/04/24 00:08:18;;;;;;;4.80;4.40;;;18.70;66.80;;;;;;5073020;28;20207;-71
2022/04/24 00:10:45;;;;;;;5.30;4.80;;;18.70;66.70;;;;;;5073258;28;20965;-71
2022/04/24 00:13:11;;;;;;;4.10;3.70;;;18.70;66.70;;;;;;5073333;28;20460;-71
2022/04/24 00:15:42;;;;;;;4.33;3.93;;;18.70;66.80;;;;;;5073336;28;20537;-70
2022/04/24 00:18:10;;;;;;;8.00;4.13;;;18.70;66.80;;;;;;5056549;28;20473;-72
2022/04/24 00:20:39;;;;;;;5.10;3.90;;;18.70;66.50;;;;;;5073544;28;20449;-72
2022/04/24 00:23:05;;;;;;;5.63;4.30;;;18.60;66.20;;;;;;5055769;28;20425;-72
2022/04/24 00:25:31;;;;;;;5.90;4.13;;;18.60;66.10;;;;;;5036743;28;20532;-72
2022/04/24 00:27:57;;;;;;;6.13;4.33;;;18.60;66.00;;;;;;5053028;28;20438;-72
2022/04/24 00:30:23;;;;;;;4.83;4.33;;;18.60;66.20;;;;;;5054157;28;20413;-72
2022/04/24 00:32:53;;;;;;;10.13;4.53;;;18.60;66.40;;;;;;5053068;28;20211;-72
2022/04/24 00:35:22;;;;;;;4.50;4.10;;;18.60;66.50;;;;;;5052905;28;20463;-72
2022/04/24 00:37:48;;;;;;;5.13;4.43;;;18.60;66.60;;;;;;5060853;28;21289;-72
2022/04/24 00:40:14;;;;;;;4.90;4.20;;;18.60;66.80;;;;;;5074022;28;20494;-72
2022/04/24 00:42:40;;;;;;;4.73;4.23;;;18.60;66.80;;;;;;5073942;28;20438;-72
2022/04/24 00:45:08;;;;;;;5.47;4.20;;;18.60;66.90;;;;;;5073011;28;20527;-72
2022/04/24 00:47:41;;;;;;;4.90;4.13;;;18.50;66.90;;;;;;5072759;28;20519;-72
2022/04/24 00:50:08;;;;;;;4.50;4.10;;;18.50;67.00;;;;;;5072516;28;20402;-72
2022/04/24 00:52:37;;;;;;;5.03;4.63;;;18.50;67.00;;;;;;5073871;28;20413;-72
2022/04/24 00:55:09;;;;;;;5.03;4.50;;;18.50;67.10;;;;;;5072619;28;20746;-72
2022/04/24 00:57:42;;;;;;;5.07;4.50;;;18.50;67.10;;;;;;5072513;28;20444;-72
2022/04/24 01:00:14;;;;;;;4.50;4.10;;;18.50;67.10;;;;;;5073672;28;20424;-72
2022/04/24 01:02:42;;;;;;;6.33;5.10;;;18.50;67.10;;;;;;5055842;28;20421;-72
2022/04/24 01:05:10;;;;;;;4.17;3.80;;;18.50;67.10;;;;;;5089243;28;20416;-72
2022/04/24 01:07:38;;;;;;;5.40;4.90;;;18.40;67.00;;;;;;5055885;28;20542;-72
2022/04/24 01:10:08;;;;;;;4.57;4.27;;;18.40;67.00;;;;;;5073291;28;20487;-72
2022/04/24 01:12:37;;;;;;;4.70;4.30;;;18.40;67.00;;;;;;5071934;28;20437;-72
2022/04/24 01:15:04;;;;;;;5.00;4.60;;;18.40;66.90;;;;;;5073187;28;20413;-72
2022/04/24 01:17:30;;;;;;;5.10;4.60;;;18.40;66.90;;;;;;5072130;28;20437;-72
2022/04/24 01:20:01;;;;;;;4.63;4.20;;;18.40;66.90;;;;;;5071955;28;20468;-72
2022/04/24 01:22:29;;;;;;;6.30;5.27;;;18.40;66.80;;;;;;5073182;28;20421;-72
2022/04/24 01:24:57;;;;;;;4.83;4.43;;;18.40;66.90;;;;;;5073426;28;20405;-72
2022/04/24 01:27:23;;;;;;;5.00;4.50;;;18.40;66.80;;;;;;5071635;28;21100;-72
2022/04/24 01:29:49;;;;;;;4.93;4.40;;;18.30;66.70;;;;;;5071986;28;20544;-72
2022/04/24 01:32:17;;;;;;;5.70;4.57;;;18.30;66.70;;;;;;5071986;28;20487;-72
2022/04/24 01:34:44;;;;;;;5.73;5.13;;;18.30;66.80;;;;;;5055398;28;20445;-72
2022/04/24 01:37:14;;;;;;;4.57;4.17;;;18.30;66.90;;;;;;5071586;28;20468;-72
2022/04/24 01:39:43;;;;;;;5.23;4.73;;;18.30;66.80;;;;;;5072493;28;20961;-72
2022/04/24 01:42:11;;;;;;;5.00;4.53;;;18.30;66.80;;;;;;5071593;28;20569;-72
2022/04/24 01:44:41;;;;;;;5.03;4.53;;;18.30;66.70;;;;;;5071647;28;20950;-72
2022/04/24 01:47:09;;;;;;;4.47;4.07;;;18.20;66.60;;;;;;5072731;28;20422;-72
2022/04/24 01:49:35;;;;;;;4.37;4.07;;;18.20;66.60;;;;;;5055051;28;20409;-72
2022/04/24 01:52:03;;;;;;;5.30;4.80;;;18.20;66.70;;;;;;5071577;28;20456;-72
2022/04/24 01:54:31;;;;;;;5.30;4.90;;;18.20;66.50;;;;;;5072423;28;20578;-72
2022/04/24 01:56:57;;;;;;;5.27;4.87;;;18.20;66.60;;;;;;5034640;28;20520;-72
2022/04/24 01:59:26;;;;;;;5.10;4.70;;;18.10;66.60;;;;;;5068273;28;20501;-72
2022/04/24 02:02:00;;;;;;;5.17;4.77;;;18.10;66.70;;;;;;5072327;28;20420;-72
2022/04/24 02:04:26;;;;;;;5.10;4.67;;;18.10;66.80;;;;;;5072642;28;20493;-72
2022/04/24 02:06:54;;;;;;;5.67;5.17;;;18.10;66.60;;;;;;5070585;28;20450;-72
2022/04/24 02:09:20;;;;;;;5.03;4.53;;;18.10;66.40;;;;;;5072117;28;20810;-72
2022/04/24 02:11:48;;;;;;;5.47;4.97;;;18.10;66.40;;;;;;5054516;28;20443;-72
2022/04/24 02:14:16;;;;;;;4.80;4.40;;;18.10;66.50;;;;;;5054841;28;20405;-72
2022/04/24 02:16:42;;;;;;;6.60;6.03;;;18.10;66.50;;;;;;5054581;28;20440;-72
2022/04/24 02:19:10;;;;;;;5.30;4.83;;;18.00;66.20;;;;;;5072165;28;20541;-72
2022/04/24 02:21:36;;;;;;;5.50;5.00;;;18.00;66.20;;;;;;5070891;28;20209;-72
2022/04/24 02:24:02;;;;;;;6.20;5.60;;;18.00;66.20;;;;;;5070630;28;20407;-72
2022/04/24 02:26:33;;;;;;;5.13;4.70;;;18.00;66.20;;;;;;5072000;28;20406;-72
2022/04/24 02:29:06;;;;;;;4.90;4.50;;;18.00;66.20;;;;;;5070953;28;20957;-72
2022/04/24 02:31:32;;;;;;;5.30;4.80;;;18.00;67.10;;;;;;5070838;28;20899;-72
2022/04/24 02:34:01;;;;;;;5.20;4.80;;;17.90;66.20;;;;;;5071769;28;20984;-72
2022/04/24 02:36:27;;;;;;;5.33;4.83;;;17.90;66.30;;;;;;5071745;28;20478;-72
2022/04/24 02:38:58;;;;;;;5.20;4.80;;;17.90;66.30;;;;;;5050669;28;20838;-72
2022/04/24 02:41:28;;;;;;;4.70;4.30;;;17.90;66.10;;;;;;5051858;28;20396;-72
2022/04/24 02:43:54;;;;;;;5.57;5.07;;;17.90;66.10;;;;;;5052132;28;20410;-72
2022/04/24 02:46:22;;;;;;;5.13;4.73;;;17.90;66.20;;;;;;5050755;28;20410;-72
2022/04/24 02:48:48;;;;;;;5.57;5.10;;;17.80;66.10;;;;;;5050428;28;20801;-72
2022/04/24 02:51:14;;;;;;;5.23;4.80;;;17.80;66.10;;;;;;5067189;28;20823;-72
2022/04/24 02:53:41;;;;;;;4.80;4.40;;;17.80;66.10;;;;;;5050594;28;20432;-72
2022/04/24 02:56:11;;;;;;;6.37;5.70;;;17.80;66.20;;;;;;5050761;28;20849;-72
2022/04/24 02:58:44;;;;;;;6.00;5.47;;;17.80;66.20;;;;;;5033792;28;20972;-72
2022/04/24 03:01:11;;;;;;;6.47;5.33;;;17.80;66.40;;;;;;5064866;28;20474;-72
2022/04/24 03:03:42;;;;;;;5.73;5.27;;;17.80;66.30;;;;;;5070435;28;20405;-72
2022/04/24 03:06:08;;;;;;;5.03;4.63;;;17.80;66.40;;;;;;5070574;28;20396;-72
2022/04/24 03:08:36;;;;;;;5.50;5.10;;;17.80;66.30;;;;;;5071667;28;20441;-72
2022/04/24 03:11:02;;;;;;;5.60;5.10;;;17.70;66.20;;;;;;5071614;28;20409;-72
2022/04/24 03:13:33;;;;;;;5.50;5.00;;;17.70;66.20;;;;;;5071475;28;20508;-72
2022/04/24 03:16:06;;;;;;;5.23;4.83;;;17.70;66.30;;;;;;5070351;28;20401;-72
2022/04/24 03:18:32;;;;;;;5.87;5.37;;;17.70;66.40;;;;;;5070368;28;20504;-72
2022/04/24 03:21:01;;;;;;;5.20;4.60;;;17.70;66.40;;;;;;5054158;28;20430;-72
2022/04/24 03:23:27;;;;;;;5.00;4.60;;;17.60;66.10;;;;;;5071626;28;20396;-72
2022/04/24 03:25:58;;;;;;;5.70;5.20;;;17.60;66.10;;;;;;5071957;28;20435;-70
2022/04/24 03:28:27;;;;;;;5.50;5.00;;;17.60;66.20;;;;;;5037226;28;20452;-69
2022/04/24 03:30:57;;;;;;;6.07;5.57;;;17.60;66.10;;;;;;5071377;28;20542;-70
2022/04/24 03:33:25;;;;;;;6.23;5.63;;;17.60;66.10;;;;;;5070273;28;20408;-69
2022/04/24 03:35:53;;;;;;;6.00;5.50;;;17.60;66.20;;;;;;5054083;28;20427;-69
2022/04/24 03:38:22;;;;;;;5.30;4.80;;;17.50;66.20;;;;;;5073095;28;20741;-70
2022/04/24 03:40:48;;;;;;;5.83;5.23;;;17.50;66.20;;;;;;5074936;28;20406;-69
2022/04/24 03:43:14;;;;;;;5.53;5.10;;;17.50;66.20;;;;;;5040834;28;20214;-69
2022/04/24 03:45:42;;;;;;;5.63;5.17;;;17.50;66.30;;;;;;5075459;28;20163;-69
2022/04/24 03:48:12;;;;;;;5.57;5.07;;;17.50;66.20;;;;;;5075007;28;20440;-70
2022/04/24 03:50:41;;;;;;;6.20;5.70;;;17.40;66.10;;;;;;5074958;28;20406;-69
2022/04/24 03:53:09;;;;;;;6.00;5.50;;;17.40;66.20;;;;;;5074671;28;20421;-69
2022/04/24 03:55:39;;;;;;;6.27;5.47;;;17.40;66.10;;;;;;5075121;28;20440;-69
2022/04/24 03:58:05;;;;;;;6.40;5.80;;;17.40;66.20;;;;;;5073720;28;20470;-70
2022/04/24 04:00:36;;;;;;;5.70;5.20;;;17.40;66.20;;;;;;5056930;28;20452;-69
2022/04/24 04:03:09;;;;;;;6.50;5.87;;;17.40;66.30;;;;;;5074955;28;20424;-69
2022/04/24 04:05:40;;;;;;;6.17;5.57;;;17.30;66.10;;;;;;5073459;28;20447;-69
2022/04/24 04:08:08;;;;;;;6.23;5.73;;;17.30;66.10;;;;;;5073285;28;20437;-69
2022/04/24 04:10:35;;;;;;;5.60;5.10;;;17.30;66.20;;;;;;5040273;28;20421;-69
2022/04/24 04:13:09;;;;;;;6.93;6.33;;;17.30;66.30;;;;;;5073305;28;20409;-69
2022/04/24 04:15:36;;;;;;;5.87;5.40;;;17.30;66.40;;;;;;5073472;28;20404;-69
2022/04/24 04:18:03;;;;;;;6.47;5.97;;;17.30;66.50;;;;;;5073173;28;20504;-69
2022/04/24 04:20:31;;;;;;;6.20;5.70;;;17.30;66.60;;;;;;5074299;28;20403;-69
2022/04/24 04:22:59;;;;;;;7.40;6.60;;;17.20;66.60;;;;;;5073307;28;20405;-69
2022/04/24 04:25:25;;;;;;;6.63;6.03;;;17.20;66.50;;;;;;5073135;28;20778;-69
2022/04/24 04:27:54;;;;;;;6.50;5.90;;;17.20;66.60;;;;;;5072956;28;20442;-69
2022/04/24 04:30:23;;;;;;;6.23;5.23;;;17.20;67.60;;;;;;5072348;28;20959;-70
2022/04/24 04:32:52;;;;;;;6.60;6.00;;;17.20;66.80;;;;;;5053990;28;20410;-69
2022/04/24 04:35:23;;;;;;;6.33;5.80;;;17.20;66.70;;;;;;5053377;28;20449;-69
2022/04/24 04:37:50;;;;;;;6.50;5.90;;;17.20;66.80;;;;;;5052943;28;20476;-69
2022/04/24 04:40:18;;;;;;;7.00;6.40;;;17.10;66.70;;;;;;5054020;28;20440;-69
2022/04/24 04:42:50;;;;;;;6.30;5.70;;;17.10;66.80;;;;;;5036245;28;20415;-69
2022/04/24 04:45:21;;;;;;;6.97;6.27;;;17.10;66.90;;;;;;5072199;28;20428;-69
2022/04/24 04:47:49;;;;;;;6.47;5.87;;;17.10;66.90;;;;;;5072363;28;20455;-70
2022/04/24 04:50:18;;;;;;;6.47;5.97;;;17.10;67.10;;;;;;5056419;28;20443;-69
2022/04/24 04:52:44;;;;;;;6.47;5.87;;;17.10;67.10;;;;;;5056197;28;20426;-70
2022/04/24 04:55:10;;;;;;;6.70;6.10;;;17.10;67.30;;;;;;5056150;28;20502;-69
2022/04/24 04:57:42;;;;;;;7.47;6.77;;;17.00;67.30;;;;;;5072582;28;20438;-70
2022/04/24 05:00:12;;;;;;;7.60;6.80;;;17.00;67.20;;;;;;5072508;28;21034;-69
2022/04/24 05:02:41;;;;;;;6.40;5.90;;;17.00;67.10;;;;;;5072438;28;20407;-69
2022/04/24 05:05:08;;;;;;;7.60;6.90;;;17.00;67.20;;;;;;5072963;28;20405;-70
2022/04/24 05:07:38;;;;;;;6.93;6.27;;;17.00;67.30;;;;;;5072398;28;20438;-69
2022/04/24 05:10:05;;;;;;;7.20;6.60;;;17.00;67.40;;;;;;5038818;28;20453;-70
2022/04/24 05:12:31;;;;;;;7.10;6.40;;;16.90;67.30;;;;;;5073298;28;20922;-70
2022/04/24 05:15:01;;;;;;;7.20;6.60;;;16.90;67.40;;;;;;5073484;28;20420;-69
2022/04/24 05:17:32;;;;;;;7.03;6.40;;;16.90;67.40;;;;;;5056049;28;20211;-70
2022/04/24 05:20:01;;;;;;;8.37;6.50;;;16.90;67.50;;;;;;5072020;28;20438;-69
2022/04/24 05:22:32;;;;;;;6.50;5.90;;;16.90;67.50;;;;;;5072147;28;20552;-70
2022/04/24 05:24:57;;;;;;;7.23;6.53;;;16.80;67.50;;;;;;5073006;28;20497;-69
2022/04/24 05:27:23;;;;;;;7.27;6.63;;;16.90;67.70;;;;;;5072999;28;20523;-69
2022/04/24 05:29:49;;;;;;;7.37;6.67;;;16.80;67.60;;;;;;5071995;28;20410;-70
2022/04/24 05:32:16;;;;;;;7.23;6.63;;;16.80;67.70;;;;;;5088629;28;20411;-69
2022/04/24 05:34:45;;;;;;;7.80;6.43;;;16.80;67.80;;;;;;5073066;28;20165;-70
2022/04/24 05:37:15;;;;;;;7.63;6.90;;;16.80;67.90;;;;;;5071688;28;21031;-70
2022/04/24 05:39:41;;;;;;;7.03;6.43;;;16.80;68.00;;;;;;5071499;28;20463;-69
2022/04/24 05:42:09;;;;;;;6.80;6.30;;;16.80;68.00;;;;;;5071645;28;20467;-69
2022/04/24 05:44:35;;;;;;;6.87;6.17;;;16.80;68.00;;;;;;5071772;28;20510;-69
2022/04/24 05:47:01;;;;;;;7.40;6.70;;;16.80;68.10;;;;;;5072829;28;20487;-70
2022/04/24 05:49:32;;;;;;;7.10;6.50;;;16.80;68.20;;;;;;5071594;28;20407;-69
2022/04/24 05:52:00;;;;;;;7.93;6.40;;;16.80;68.20;;;;;;5072427;28;20412;-69
2022/04/24 05:54:28;;;;;;;6.67;6.10;;;16.80;68.40;;;;;;5072663;28;20406;-69
2022/04/24 05:56:54;;;;;;;7.30;6.67;;;16.70;68.30;;;;;;5072573;28;20410;-70
2022/04/24 05:59:22;;;;;;;6.87;6.17;;;16.70;68.30;;;;;;5070676;28;20538;-69
2022/04/24 06:01:48;;;;;;;7.10;6.50;;;16.70;68.30;;;;;;5053791;28;20211;-70
2022/04/24 06:04:16;;;;;;;6.50;5.90;;;16.70;68.30;;;;;;5071346;28;20405;-69
2022/04/24 06:06:47;;;;;;;7.27;6.57;;;16.70;68.40;;;;;;5071238;28;20445;-69
2022/04/24 06:09:18;;;;;;;6.57;5.97;;;16.70;68.50;;;;;;5072399;28;20394;-69
2022/04/24 06:11:49;;;;;;;6.77;6.17;;;16.70;69.00;;;;;;5072291;28;20868;-69
2022/04/24 06:14:20;;;;;;;6.53;6.03;;;16.70;68.70;;;;;;5071094;28;20449;-70
2022/04/24 06:16:45;;;;;;;6.30;5.73;;;16.70;68.80;;;;;;5054444;28;20430;-69
2022/04/24 06:19:14;;;;;;;7.97;6.50;;;16.60;68.70;;;;;;5071985;28;20958;-69
2022/04/24 06:21:42;;;;;;;7.23;6.53;;;16.60;68.70;;;;;;5070945;28;20398;-69
2022/04/24 06:24:10;;;;;;;6.83;6.13;;;16.60;68.80;;;;;;5054573;28;20628;-69
2022/04/24 06:26:39;;;;;;;6.77;6.17;;;16.60;68.80;;;;;;5072152;28;20163;-70
2022/04/24 06:29:05;;;;;;;7.07;6.47;;;16.60;68.80;;;;;;5072084;28;20459;-69
2022/04/24 06:31:33;;;;;;;9.37;6.17;;;16.60;68.80;;;;;;5070502;28;20434;-69
2022/04/24 06:34:02;;;;;;;6.93;6.23;;;16.60;68.80;;;;;;5071986;28;20493;-70
2022/04/24 06:36:28;;;;;;;6.60;6.00;;;16.60;68.90;;;;;;5070937;28;20454;-69
2022/04/24 06:38:54;;;;;;;6.23;5.73;;;16.60;69.00;;;;;;5070817;28;20875;-69
2022/04/24 06:41:20;;;;;;;6.70;6.10;;;16.60;69.40;;;;;;5070724;28;20418;-69
2022/04/24 06:43:46;;;;;;;6.70;6.10;;;16.60;69.00;;;;;;5071878;28;20409;-69
2022/04/24 06:46:12;;;;;;;7.00;6.30;;;16.60;69.00;;;;;;5050448;28;20443;-69
2022/04/24 06:48:38;;;;;;;6.67;5.67;;;16.60;69.20;;;;;;5050563;28;20447;-69
2022/04/24 06:51:04;;;;;;;6.53;5.93;;;16.60;69.30;;;;;;5050797;28;20787;-69
2022/04/24 06:53:30;;;;;;;6.70;6.03;;;16.60;69.30;;;;;;5051785;28;20419;-70
2022/04/24 06:55:56;;;;;;;6.83;6.17;;;16.60;69.30;;;;;;5051825;28;20404;-70
2022/04/24 06:58:25;;;;;;;6.50;5.90;;;16.60;69.40;;;;;;5067031;28;20803;-70
2022/04/24 07:00:52;;;;;;;6.50;5.97;;;16.60;70.30;;;;;;5041367;28;20424;-70
2022/04/24 07:03:22;;;;;;;6.60;6.00;;;16.60;69.40;;;;;;5050766;28;20850;-69
2022/04/24 07:05:54;;;;;;;7.00;6.30;;;16.60;69.50;;;;;;5050553;28;20432;-69
2022/04/24 07:08:21;;;;;;;7.00;6.30;;;16.60;69.60;;;;;;5051713;28;20445;-70
2022/04/24 07:10:57;;;;;;;6.63;5.33;;;16.60;69.60;;;;;;5052767;28;20834;-70
2022/04/24 07:13:30;;;;;;;6.30;5.70;;;16.60;69.60;;;;;;5054493;28;20921;-69
2022/04/24 07:15:59;;;;;;;7.00;6.20;;;16.60;69.50;;;;;;5074446;28;20957;-69
2022/04/24 07:18:28;;;;;;;5.87;4.97;;;16.60;69.40;;;;;;5075565;28;20525;-69
2022/04/24 07:21:02;;;;;;;6.63;6.03;;;16.60;69.40;;;;;;5057898;28;20739;-69
2022/04/24 07:23:31;;;;;;;6.63;6.03;;;16.60;69.40;;;;;;5058158;28;20964;-69
2022/04/24 07:25:58;;;;;;;6.50;5.97;;;16.60;69.50;;;;;;5074400;28;20539;-70
2022/04/24 07:28:27;;;;;;;6.67;5.40;;;16.60;69.50;;;;;;5074342;28;20474;-69
2022/04/24 07:30:55;;;;;;;7.27;5.67;;;16.60;69.60;;;;;;5074472;28;20453;-69
2022/04/24 07:33:23;;;;;;;5.90;5.40;;;16.60;69.50;;;;;;5074413;28;20394;-69
2022/04/24 07:35:52;;;;;;;6.30;5.70;;;16.60;69.50;;;;;;5075357;28;20427;-69
2022/04/24 07:38:20;;;;;;;7.00;5.60;;;16.60;69.40;;;;;;5074394;28;20482;-70
2022/04/24 07:40:47;;;;;;;6.13;5.60;;;16.60;69.40;;;;;;5074834;28;20935;-69
2022/04/24 07:43:13;;;;;;;6.13;5.63;;;16.70;69.40;;;;;;5074321;28;20958;-69
2022/04/24 07:45:48;;;;;;;6.70;6.10;;;16.70;69.40;;;;;;5066062;28;20934;-69
2022/04/24 07:48:16;;;;;;;7.43;6.33;;;16.70;69.40;;;;;;5073974;28;20907;-69
2022/04/24 07:50:45;;;;;;;6.60;6.00;;;16.70;69.30;;;;;;5073551;28;20444;-69
2022/04/24 07:53:12;;;;;;;6.53;5.30;;;16.70;69.30;;;;;;5074824;28;20464;-69
2022/04/24 07:55:42;;;;;;;6.90;6.30;;;16.70;69.20;;;;;;5073555;28;20543;-69
2022/04/24 07:58:09;;;;;;;7.40;6.67;;;16.70;69.30;;;;;;5073627;28;20558;-69
2022/04/24 08:00:38;;;;;;;6.60;6.10;;;16.70;69.20;;;;;;5074851;28;20401;-69
2022/04/24 08:03:09;;;;;;;6.90;6.20;;;16.70;69.30;;;;;;5074585;28;20403;-70
2022/04/24 08:05:43;;;;;;;6.60;5.93;;;16.70;69.30;;;;;;5040886;28;20454;-69
2022/04/24 08:08:17;;;;;;;7.00;6.30;;;16.70;69.40;;;;;;5056658;28;20446;-70
2022/04/24 08:10:50;;;;;;;5.93;5.40;;;16.70;69.30;;;;;;5056965;28;20910;-68
2022/04/24 08:13:19;;;;;;;5.90;5.30;;;16.80;69.40;;;;;;5057105;28;20847;-71
2022/04/24 08:15:49;;;;;;;6.40;5.80;;;16.80;69.50;;;;;;5058145;28;20420;-69
2022/04/24 08:18:15;;;;;;;6.73;5.90;;;16.80;69.50;;;;;;5052783;28;20466;-69
2022/04/24 08:20:42;;;;;;;7.97;6.97;;;16.80;69.50;;;;;;5070662;28;20431;-70
2022/04/24 08:23:10;;;;;;;6.50;5.90;;;16.80;69.50;;;;;;5053655;28;20406;-70
2022/04/24 08:25:39;;;;;;;6.90;6.30;;;16.80;69.50;;;;;;5071116;28;20453;-70
2022/04/24 08:28:09;;;;;;;7.77;6.23;;;16.80;69.40;;;;;;5068548;28;20519;-70
2022/04/24 08:30:44;;;;;;;6.63;6.03;;;16.80;69.50;;;;;;5070623;28;20749;-69
2022/04/24 08:33:10;;;;;;;6.60;6.00;;;16.80;69.40;;;;;;5070951;28;20460;-69
2022/04/24 08:35:37;;;;;;;6.07;5.47;;;16.80;69.30;;;;;;5070744;28;20421;-69
2022/04/24 08:38:06;;;;;;;6.13;5.53;;;16.80;69.30;;;;;;5070446;28;20483;-70
2022/04/24 08:40:32;;;;;;;7.27;6.63;;;16.80;69.20;;;;;;5071798;28;20768;-70
2022/04/24 08:42:58;;;;;;;7.53;6.17;;;16.80;69.10;;;;;;5070240;28;20531;-70
2022/04/24 08:45:28;;;;;;;7.20;6.50;;;16.90;69.30;;;;;;5072003;28;20469;-70
2022/04/24 08:47:55;;;;;;;6.80;6.23;;;16.90;69.20;;;;;;5070425;28;20435;-70
2022/04/24 08:50:27;;;;;;;6.87;6.20;;;16.90;69.30;;;;;;5071747;28;20408;-70
2022/04/24 08:52:59;;;;;;;7.93;6.10;;;16.90;69.30;;;;;;5070406;28;20405;-69
2022/04/24 08:55:30;;;;;;;6.87;5.80;;;17.00;69.50;;;;;;5071057;28;20434;-70
2022/04/24 08:57:57;;;;;;;6.87;6.10;;;17.00;69.50;;;;;;5070318;28;20528;-70
2022/04/24 09:00:23;;;;;;;6.57;5.97;;;17.00;69.60;;;;;;5087262;28;20435;-69
2022/04/24 09:02:53;;;;;;;7.47;6.77;;;17.00;69.50;;;;;;5070268;28;20409;-70
2022/04/24 09:05:20;;;;;;;7.43;6.20;;;17.10;69.60;;;;;;5053711;28;20409;-70
2022/04/24 09:07:46;;;;;;;6.40;5.90;;;17.10;69.60;;;;;;5070206;28;20452;-70
2022/04/24 09:10:13;;;;;;;6.33;5.73;;;17.10;69.50;;;;;;5053503;28;20437;-70
2022/04/24 09:12:44;;;;;;;6.97;6.27;;;17.10;69.50;;;;;;5071186;28;20926;-69
2022/04/24 09:15:15;;;;;;;6.27;5.67;;;17.20;69.60;;;;;;5069946;28;20440;-70
2022/04/24 09:17:44;;;;;;;6.30;5.70;;;17.20;69.50;;;;;;5053781;28;20453;-70
2022/04/24 09:20:18;;;;;;;6.47;5.83;;;17.20;69.40;;;;;;5070742;28;20524;-70
2022/04/24 09:22:49;;;;;;;6.83;6.20;;;17.30;69.40;;;;;;5069812;28;20441;-70
2022/04/24 09:25:16;;;;;;;6.83;6.20;;;17.30;69.40;;;;;;5053477;28;20753;-69
2022/04/24 09:27:51;;;;;;;8.27;7.47;;;17.30;69.40;;;;;;5067781;28;20440;-70
2022/04/24 09:30:17;;;;;;;6.13;5.53;;;17.30;69.30;;;;;;5053160;28;20437;-70
2022/04/24 09:32:54;;;;;;;6.43;5.83;;;17.40;69.30;;;;;;5071038;28;20405;-70
2022/04/24 09:35:30;;;;;;;8.00;6.33;;;17.40;69.40;;;;;;5069656;28;20508;-70
2022/04/24 09:38:21;;;;;;;7.50;6.80;;;17.40;69.30;;;;;;5069603;28;20465;-69
2022/04/24 09:40:50;;;;;;;6.70;6.10;;;17.50;69.40;;;;;;5070902;28;20453;-70
2022/04/24 09:43:20;;;;;;;7.90;5.87;;;17.50;69.30;;;;;;5069035;28;20441;-70
2022/04/24 09:45:55;;;;;;;7.57;5.90;;;17.50;70.20;;;;;;5069573;28;20454;-70
2022/04/24 09:48:26;;;;;;;6.67;6.07;;;17.60;69.50;;;;;;5069785;28;20424;-70
2022/04/24 09:50:54;;;;;;;6.20;5.70;;;17.60;69.40;;;;;;5069649;28;20892;-70
2022/04/24 09:53:27;;;;;;;6.73;6.03;;;17.60;69.30;;;;;;5070531;28;20398;-69
2022/04/24 09:55:54;;;;;;;7.10;6.50;;;17.70;69.40;;;;;;5085518;28;20439;-69
2022/04/24 09:58:21;;;;;;;10.67;6.60;;;17.70;69.40;;;;;;5069340;28;20488;-70
2022/04/24 10:00:50;;;;;;;7.77;6.33;;;17.70;69.40;;;;;;5069094;28;20398;-70
2022/04/24 10:03:19;;;;;;;6.73;6.03;;;17.80;69.40;;;;;;5068988;28;20540;-69
2022/04/24 10:05:50;;;;;;;6.93;6.23;;;17.80;69.20;;;;;;5070342;28;20420;-70
2022/04/24 10:08:17;;;;;;;7.10;6.50;;;17.80;69.10;;;;;;5067377;28;20431;-70
2022/04/24 10:10:45;;;;;;;7.50;6.80;;;17.90;69.10;;;;;;5053338;28;20429;-70
2022/04/24 10:13:13;;;;;;;6.97;6.30;;;17.90;69.00;;;;;;5063505;28;20443;-70
2022/04/24 10:15:55;;;;;;;7.87;6.40;;;18.00;69.00;;;;;;5052278;28;20417;-69
2022/04/24 10:18:49;;;;;;;6.77;6.17;;;18.00;68.90;;;;;;5068420;28;20483;-70
2022/04/24 10:21:39;;;;;;;6.50;5.77;;;18.00;68.90;;;;;;5069882;28;20844;-69
2022/04/24 10:24:10;;;;;;;7.30;6.60;;;18.10;68.90;;;;;;5068698;28;20475;-70
2022/04/24 10:26:37;;;;;;;6.67;6.10;;;18.10;68.90;;;;;;5068373;28;20412;-70
2022/04/24 10:29:09;;;;;;;6.20;5.70;;;18.10;68.90;;;;;;5068559;28;20817;-70
2022/04/24 10:31:49;;;;;;;6.43;5.90;;;18.20;68.30;;;;;;5069562;28;20451;-70
2022/04/24 10:34:18;;;;;;;6.50;5.90;;;18.20;68.80;;;;;;5069797;28;20435;-70
2022/04/24 10:36:59;;;;;;;7.00;6.43;;;18.20;68.70;;;;;;5068548;28;20463;-70
2022/04/24 10:39:33;;;;;;;7.83;7.13;;;18.30;68.70;;;;;;5068360;28;20829;-70
2022/04/24 10:42:12;;;;;;;6.80;6.10;;;18.30;68.50;;;;;;5069622;28;20432;-70
2022/04/24 10:44:54;;;;;;;6.67;5.97;;;18.30;68.40;;;;;;5052087;28;20804;-70
2022/04/24 10:47:20;;;;;;;6.60;6.00;;;18.40;68.40;;;;;;5068335;28;20996;-70
2022/04/24 10:49:46;;;;;;;6.80;6.20;;;18.40;68.40;;;;;;5068292;28;20444;-70
2022/04/24 10:52:14;;;;;;;6.20;5.60;;;18.40;68.30;;;;;;5068437;28;20246;-70
2022/04/24 10:54:44;;;;;;;7.40;6.70;;;18.50;68.50;;;;;;5067389;28;20398;-70
2022/04/24 10:57:18;;;;;;;7.80;7.07;;;18.50;68.40;;;;;;5068376;28;20804;-70
2022/04/24 10:59:51;;;;;;;7.53;6.53;;;18.60;68.50;;;;;;5068682;28;20518;-70
2022/04/24 11:02:27;;;;;;;7.33;6.63;;;18.60;68.30;;;;;;5069421;28;20410;-70
2022/04/24 11:05:02;;;;;;;6.60;6.10;;;18.60;68.20;;;;;;5034877;28;20595;-69
2022/04/24 11:07:31;;;;;;;7.03;6.43;;;18.70;68.30;;;;;;5035174;28;20502;-69
2022/04/24 11:10:10;;;;;;;7.20;6.50;;;18.70;69.10;;;;;;5068494;28;20433;-70
2022/04/24 11:12:40;;;;;;;8.53;7.10;;;18.70;68.10;;;;;;5069771;28;20418;-70
2022/04/24 11:15:15;;;;;;;7.50;6.80;;;18.80;68.20;;;;;;5045976;28;20438;-70
2022/04/24 11:17:41;;;;;;;6.57;5.97;;;18.80;68.10;;;;;;5049389;28;20450;-69
2022/04/24 11:20:10;;;;;;;7.10;6.50;;;18.80;68.10;;;;;;5073282;28;20514;-70
2022/04/24 11:22:48;;;;;;;7.87;7.23;;;18.90;68.20;;;;;;5068479;28;20421;-70
2022/04/24 11:25:25;;;;;;;6.83;6.23;;;18.90;68.00;;;;;;5061983;28;20437;-69
2022/04/24 11:27:53;;;;;;;7.83;6.07;;;18.90;67.80;;;;;;5068435;28;20859;-70
2022/04/24 11:30:25;;;;;;;8.90;6.53;;;19.00;67.90;;;;;;5069677;28;20396;-70
2022/04/24 11:33:04;;;;;;;6.80;6.20;;;19.00;67.80;;;;;;5069726;28;20837;-70
2022/04/24 11:35:37;;;;;;;6.90;6.00;;;19.00;67.70;;;;;;5052313;28;20413;-70
2022/04/24 11:38:08;;;;;;;7.63;6.93;;;19.10;67.50;;;;;;5068131;28;20986;-70
2022/04/24 11:40:46;;;;;;;10.57;7.30;;;19.10;67.40;;;;;;5051960;28;20441;-69
2022/04/24 11:43:19;;;;;;;7.30;6.70;;;19.10;67.30;;;;;;5070388;28;21122;-68
2022/04/24 11:51:19;;;;;;;7.77;7.07;;;19.20;67.00;;;;;;5070283;28;20422;-68
2022/04/24 11:53:45;;;;;;;6.47;5.87;;;19.20;66.90;;;;;;5053494;28;20441;-68
2022/04/24 11:56:13;;;;;;;6.77;6.17;;;19.30;67.00;;;;;;5071271;28;20938;-68
2022/04/24 11:58:44;;;;;;;7.77;7.07;;;19.30;67.00;;;;;;5073041;28;20460;-68
2022/04/24 12:01:17;;;;;;;7.60;6.90;;;19.30;66.90;;;;;;5074216;28;20418;-68
2022/04/24 12:03:45;;;;;;;7.60;7.00;;;19.30;66.80;;;;;;5057026;28;20440;-68
2022/04/24 12:06:13;;;;;;;7.87;7.13;;;19.30;66.70;;;;;;5074778;28;20860;-68
2022/04/24 12:08:45;;;;;;;7.60;6.90;;;19.40;66.70;;;;;;5074729;28;20421;-68
2022/04/24 12:11:26;;;;;;;6.97;6.30;;;19.40;66.70;;;;;;5073193;28;20537;-68
2022/04/24 12:14:01;;;;;;;7.20;6.60;;;19.40;66.50;;;;;;5073366;28;20784;-68
2022/04/24 12:16:27;;;;;;;6.50;5.93;;;19.50;66.50;;;;;;5074466;28;20441;-68
2022/04/24 12:18:56;;;;;;;7.73;7.03;;;19.50;66.60;;;;;;5056674;28;21069;-68
2022/04/24 12:21:25;;;;;;;7.07;6.47;;;19.50;66.60;;;;;;5074171;28;20480;-68
2022/04/24 12:23:53;;;;;;;7.40;6.73;;;19.50;66.50;;;;;;5072992;28;20406;-68
2022/04/24 12:26:23;;;;;;;7.33;6.67;;;19.60;66.30;;;;;;5073270;28;20420;-68
2022/04/24 12:28:49;;;;;;;9.50;7.17;;;19.60;66.10;;;;;;5074330;28;20458;-68
2022/04/24 12:31:25;;;;;;;8.17;7.47;;;19.60;66.10;;;;;;5074344;28;20472;-68
2022/04/24 12:33:55;;;;;;;8.80;6.50;;;19.70;66.00;;;;;;5074172;28;20412;-68
2022/04/24 12:36:22;;;;;;;6.87;6.27;;;19.70;65.90;;;;;;5074068;28;20398;-68
2022/04/24 12:38:59;;;;;;;7.20;6.60;;;19.70;65.90;;;;;;5074434;28;20825;-68
2022/04/24 12:41:28;;;;;;;8.27;7.47;;;19.70;65.80;;;;;;5056288;28;20907;-68
2022/04/24 12:44:01;;;;;;;6.80;6.30;;;19.80;65.80;;;;;;5074371;28;20752;-68
2022/04/24 12:46:32;;;;;;;7.43;6.83;;;19.80;65.60;;;;;;5072915;28;20851;-68
2022/04/24 12:48:58;;;;;;;6.80;6.20;;;19.80;65.50;;;;;;5056236;28;20450;-68
2022/04/24 12:51:28;;;;;;;7.47;6.60;;;19.80;65.50;;;;;;5073985;28;20408;-68
2022/04/24 12:53:56;;;;;;;7.10;6.40;;;19.90;65.50;;;;;;5073761;28;21009;-68
2022/04/24 12:56:25;;;;;;;7.40;6.80;;;19.90;65.30;;;;;;5073889;28;20521;-68
2022/04/24 12:58:51;;;;;;;7.33;6.50;;;19.90;65.20;;;;;;5073702;28;20823;-68
2022/04/24 13:01:17;;;;;;;7.47;6.67;;;19.90;65.10;;;;;;5073515;28;20427;-68